RYR59BH LDDU-ENTO
Flight info
| Callsign | RYR59BH |
|---|---|
| Flight time | 3h 7m |
| Altitude | 36000 |
| Route | MADOS DCT GEBNI DCT LURID DCT VEBAL DCT STEIN DCT BUDEX DCT MAREM DCT GODUR DCT NEDIK DCT ROKAM L997 RISMA/N0391F280 L997 SABAK L617 REPKU |
| Aircraft | B738/M-SDE2E3FGHIRWXY/LB1 |
Departure
| Time | 2026-04-29 08:35 |
|---|---|
| Airport | Dubrovnik Ruđer Bošković Airport (LDDU) |
Arrival
| Time | 2026-04-29 11:42 |
|---|---|
| Airport | Sandefjord Airport, Torp (ENTO) |
| Time | Latitude | Longitude | Altitude | Speed | Heading |
|---|---|---|---|---|---|
| 2026-04-29 08:18 | 42.55948 | 18.26651 | 512 ft | 0 kts | 208° |
| 2026-04-29 08:28 | 42.55956 | 18.26657 | 512 ft | 2 kts | 207° |
| 2026-04-29 08:29 | 42.55970 | 18.26666 | 513 ft | 2 kts | 208° |
| 2026-04-29 08:29 | 42.55981 | 18.26680 | 513 ft | 2 kts | 235° |
| 2026-04-29 08:29 | 42.55987 | 18.26698 | 514 ft | 2 kts | 256° |
| 2026-04-29 08:29 | 42.55988 | 18.26718 | 514 ft | 2 kts | 277° |
| 2026-04-29 08:30 | 42.55985 | 18.26734 | 514 ft | 0 kts | 295° |
| 2026-04-29 08:30 | 42.55981 | 18.26743 | 513 ft | 0 kts | 298° |
| 2026-04-29 08:31 | 42.55994 | 18.26712 | 514 ft | 11 kts | 298° |
| 2026-04-29 08:32 | 42.56061 | 18.26540 | 515 ft | 29 kts | 297° |
| 2026-04-29 08:32 | 42.56173 | 18.26251 | 520 ft | 34 kts | 297° |
| 2026-04-29 08:32 | 42.56284 | 18.25975 | 522 ft | 32 kts | 298° |
| 2026-04-29 08:32 | 42.56385 | 18.25717 | 523 ft | 30 kts | 299° |
| 2026-04-29 08:33 | 42.56484 | 18.25472 | 518 ft | 30 kts | 297° |
| 2026-04-29 08:33 | 42.56584 | 18.25209 | 508 ft | 31 kts | 299° |
| 2026-04-29 08:33 | 42.56690 | 18.24951 | 504 ft | 30 kts | 297° |
| 2026-04-29 08:33 | 42.56791 | 18.24711 | 505 ft | 27 kts | 316° |
| 2026-04-29 08:34 | 42.56933 | 18.24766 | 504 ft | 25 kts | 81° |
| 2026-04-29 08:34 | 42.56828 | 18.25078 | 504 ft | 61 kts | 117° |
| 2026-04-29 08:34 | 42.56525 | 18.25840 | 524 ft | 120 kts | 117° |
| 2026-04-29 08:34 | 42.56051 | 18.27045 | 542 ft | 165 kts | 118° |
| 2026-04-29 08:35 | 42.55506 | 18.28437 | 1072 ft | 170 kts | 118° |
| 2026-04-29 08:35 | 42.54930 | 18.29922 | 1508 ft | 183 kts | 118° |
| 2026-04-29 08:35 | 42.54312 | 18.31417 | 1928 ft | 185 kts | 121° |
| 2026-04-29 08:35 | 42.53645 | 18.33017 | 2110 ft | 204 kts | 120° |
| 2026-04-29 08:36 | 42.52681 | 18.34493 | 2309 ft | 222 kts | 150° |
| 2026-04-29 08:36 | 42.51160 | 18.34996 | 2567 ft | 237 kts | 183° |
| 2026-04-29 08:36 | 42.49532 | 18.34353 | 2868 ft | 252 kts | 208° |
| 2026-04-29 08:36 | 42.48122 | 18.32831 | 3210 ft | 264 kts | 227° |
| 2026-04-29 08:37 | 42.46967 | 18.30936 | 3781 ft | 266 kts | 223° |
| 2026-04-29 08:37 | 42.45392 | 18.29657 | 4462 ft | 265 kts | 196° |
| 2026-04-29 08:37 | 42.43610 | 18.29152 | 5103 ft | 267 kts | 188° |
| 2026-04-29 08:37 | 42.41763 | 18.28767 | 5736 ft | 270 kts | 190° |
| 2026-04-29 08:38 | 42.39929 | 18.28280 | 6396 ft | 272 kts | 192° |
| 2026-04-29 08:38 | 42.38073 | 18.27693 | 7018 ft | 276 kts | 194° |
| 2026-04-29 08:38 | 42.36202 | 18.27060 | 7680 ft | 279 kts | 194° |
| 2026-04-29 08:38 | 42.34331 | 18.26419 | 8330 ft | 281 kts | 195° |
| 2026-04-29 08:39 | 42.32419 | 18.25767 | 8990 ft | 285 kts | 195° |
| 2026-04-29 08:39 | 42.30503 | 18.25117 | 9648 ft | 289 kts | 195° |
| 2026-04-29 08:39 | 42.28558 | 18.24461 | 10277 ft | 294 kts | 195° |
| 2026-04-29 08:39 | 42.26502 | 18.23763 | 10635 ft | 309 kts | 197° |
| 2026-04-29 08:40 | 42.24466 | 18.22704 | 10950 ft | 323 kts | 211° |
| 2026-04-29 08:40 | 42.22674 | 18.20807 | 11300 ft | 334 kts | 228° |
| 2026-04-29 08:40 | 42.21274 | 18.18298 | 11962 ft | 336 kts | 239° |
| 2026-04-29 08:40 | 42.20197 | 18.15509 | 12625 ft | 339 kts | 250° |
| 2026-04-29 08:41 | 42.19694 | 18.12478 | 13338 ft | 338 kts | 268° |
| 2026-04-29 08:41 | 42.19869 | 18.09309 | 14013 ft | 340 kts | 282° |
| 2026-04-29 08:41 | 42.20530 | 18.06257 | 14733 ft | 342 kts | 291° |
| 2026-04-29 08:41 | 42.21626 | 18.03433 | 15442 ft | 344 kts | 306° |
| 2026-04-29 08:42 | 42.23304 | 18.01179 | 16133 ft | 348 kts | 322° |
| 2026-04-29 08:42 | 42.25400 | 17.99557 | 16829 ft | 352 kts | 333° |
| 2026-04-29 08:42 | 42.27729 | 17.98462 | 17498 ft | 357 kts | 345° |
| 2026-04-29 08:42 | 42.30220 | 17.98274 | 18113 ft | 367 kts | 4° |
| 2026-04-29 08:43 | 42.32711 | 17.99152 | 18714 ft | 376 kts | 19° |
| 2026-04-29 08:43 | 42.35020 | 18.00788 | 19303 ft | 383 kts | 28° |
| 2026-04-29 08:43 | 42.37266 | 18.02765 | 19859 ft | 388 kts | 31° |
| 2026-04-29 08:43 | 42.39495 | 18.04874 | 20462 ft | 391 kts | 32° |
| 2026-04-29 08:44 | 42.41715 | 18.07025 | 21031 ft | 394 kts | 32° |
| 2026-04-29 08:44 | 42.43938 | 18.09186 | 21577 ft | 398 kts | 32° |
| 2026-04-29 08:44 | 42.46193 | 18.11371 | 22133 ft | 400 kts | 32° |
| 2026-04-29 08:44 | 42.48459 | 18.13555 | 22686 ft | 403 kts | 31° |
| 2026-04-29 08:45 | 42.50727 | 18.15721 | 23193 ft | 406 kts | 31° |
| 2026-04-29 08:45 | 42.53081 | 18.17821 | 23698 ft | 407 kts | 27° |
| 2026-04-29 08:45 | 42.55624 | 18.19519 | 24189 ft | 405 kts | 17° |
| 2026-04-29 08:45 | 42.58315 | 18.20554 | 24663 ft | 403 kts | 6° |
| 2026-04-29 08:46 | 42.61079 | 18.20954 | 25144 ft | 401 kts | 358° |
| 2026-04-29 08:46 | 42.63868 | 18.20882 | 25622 ft | 401 kts | 353° |
| 2026-04-29 08:46 | 42.66671 | 18.20505 | 26049 ft | 402 kts | 347° |
| 2026-04-29 08:46 | 42.69372 | 18.19617 | 26520 ft | 400 kts | 339° |
| 2026-04-29 08:47 | 42.71974 | 18.18307 | 26944 ft | 402 kts | 334° |
| 2026-04-29 08:47 | 42.74542 | 18.16789 | 27395 ft | 403 kts | 332° |
| 2026-04-29 08:47 | 42.77076 | 18.15147 | 27814 ft | 405 kts | 331° |
| 2026-04-29 08:47 | 42.79636 | 18.13592 | 28252 ft | 409 kts | 335° |
| 2026-04-29 08:48 | 42.82264 | 18.12400 | 28657 ft | 413 kts | 340° |
| 2026-04-29 08:48 | 42.85038 | 18.11416 | 29050 ft | 417 kts | 343° |
| 2026-04-29 08:48 | 42.87890 | 18.10541 | 29491 ft | 419 kts | 344° |
| 2026-04-29 08:48 | 42.90752 | 18.09710 | 29859 ft | 422 kts | 344° |
| 2026-04-29 08:49 | 42.93623 | 18.08887 | 30257 ft | 424 kts | 344° |
| 2026-04-29 08:49 | 42.96495 | 18.08057 | 30651 ft | 426 kts | 344° |
| 2026-04-29 08:49 | 42.99402 | 18.07208 | 31069 ft | 427 kts | 344° |
| 2026-04-29 08:49 | 43.02166 | 18.06392 | 31528 ft | 427 kts | 343° |
| 2026-04-29 08:50 | 43.05053 | 18.05532 | 32168 ft | 422 kts | 343° |
| 2026-04-29 08:50 | 43.07917 | 18.04674 | 32788 ft | 418 kts | 343° |
| 2026-04-29 08:50 | 43.10726 | 18.03827 | 33284 ft | 416 kts | 343° |
| 2026-04-29 08:50 | 43.13538 | 18.02975 | 33741 ft | 415 kts | 343° |
| 2026-04-29 08:51 | 43.16356 | 18.02119 | 34206 ft | 413 kts | 343° |
| 2026-04-29 08:51 | 43.19132 | 18.01274 | 34633 ft | 412 kts | 342° |
| 2026-04-29 08:51 | 43.21915 | 18.00424 | 34957 ft | 411 kts | 342° |
| 2026-04-29 08:51 | 43.24703 | 17.99572 | 35283 ft | 410 kts | 342° |
| 2026-04-29 08:52 | 43.27500 | 17.98718 | 35598 ft | 409 kts | 342° |
| 2026-04-29 08:52 | 43.30248 | 17.97879 | 35895 ft | 409 kts | 342° |
| 2026-04-29 08:52 | 43.33025 | 17.97029 | 36095 ft | 409 kts | 342° |
| 2026-04-29 08:53 | 43.38593 | 17.95317 | 36117 ft | 408 kts | 342° |
| 2026-04-29 08:53 | 43.44126 | 17.93614 | 36120 ft | 408 kts | 342° |
| 2026-04-29 08:54 | 43.49641 | 17.91913 | 36118 ft | 409 kts | 342° |
| 2026-04-29 08:54 | 43.55190 | 17.90199 | 36238 ft | 410 kts | 342° |
| 2026-04-29 08:54 | 43.57961 | 17.89343 | 36559 ft | 408 kts | 342° |
| 2026-04-29 08:55 | 43.60715 | 17.88492 | 36945 ft | 406 kts | 342° |
| 2026-04-29 08:55 | 43.63457 | 17.87644 | 37269 ft | 406 kts | 342° |
| 2026-04-29 08:55 | 43.66194 | 17.86796 | 37615 ft | 405 kts | 342° |
| 2026-04-29 08:55 | 43.68925 | 17.85950 | 37971 ft | 403 kts | 342° |
| 2026-04-29 08:56 | 43.71687 | 17.85096 | 38116 ft | 405 kts | 342° |
| 2026-04-29 08:56 | 43.77161 | 17.83393 | 38116 ft | 404 kts | 341° |
| 2026-04-29 08:57 | 43.82647 | 17.81679 | 38113 ft | 404 kts | 342° |
| 2026-04-29 08:57 | 43.88112 | 17.79972 | 38115 ft | 403 kts | 342° |
| 2026-04-29 08:58 | 43.93572 | 17.78269 | 38109 ft | 402 kts | 341° |
| 2026-04-29 08:58 | 43.99020 | 17.76561 | 38120 ft | 403 kts | 342° |
| 2026-04-29 08:59 | 44.04458 | 17.74857 | 38117 ft | 402 kts | 341° |
| 2026-04-29 08:59 | 44.09933 | 17.73133 | 38114 ft | 404 kts | 342° |
| 2026-04-29 09:00 | 44.15393 | 17.71411 | 38115 ft | 403 kts | 342° |
| 2026-04-29 09:00 | 44.20848 | 17.69691 | 38120 ft | 402 kts | 342° |
| 2026-04-29 09:01 | 44.26268 | 17.67981 | 38123 ft | 402 kts | 341° |
| 2026-04-29 09:01 | 44.31738 | 17.66251 | 38127 ft | 401 kts | 341° |
| 2026-04-29 09:02 | 44.37161 | 17.64529 | 38122 ft | 401 kts | 341° |
| 2026-04-29 09:02 | 44.42587 | 17.62804 | 38129 ft | 402 kts | 341° |
| 2026-04-29 09:03 | 44.48025 | 17.61071 | 38134 ft | 402 kts | 341° |
| 2026-04-29 09:03 | 44.53490 | 17.59325 | 38139 ft | 402 kts | 341° |
| 2026-04-29 09:04 | 44.58921 | 17.57592 | 38138 ft | 402 kts | 341° |
| 2026-04-29 09:04 | 44.64355 | 17.55850 | 38142 ft | 401 kts | 341° |
| 2026-04-29 09:05 | 44.69795 | 17.54107 | 38149 ft | 402 kts | 341° |
| 2026-04-29 09:05 | 44.75217 | 17.52366 | 38156 ft | 401 kts | 341° |
| 2026-04-29 09:06 | 44.80633 | 17.50622 | 38157 ft | 401 kts | 341° |
| 2026-04-29 09:06 | 44.86063 | 17.48864 | 38166 ft | 401 kts | 341° |
| 2026-04-29 09:07 | 44.91470 | 17.47113 | 38159 ft | 401 kts | 341° |
| 2026-04-29 09:07 | 44.96885 | 17.45363 | 38166 ft | 401 kts | 341° |
| 2026-04-29 09:08 | 45.02318 | 17.43601 | 38157 ft | 400 kts | 341° |
| 2026-04-29 09:08 | 45.07736 | 17.41842 | 38149 ft | 399 kts | 341° |
| 2026-04-29 09:09 | 45.13146 | 17.40154 | 38158 ft | 401 kts | 344° |
| 2026-04-29 09:09 | 45.18695 | 17.39172 | 38156 ft | 407 kts | 349° |
| 2026-04-29 09:10 | 45.24339 | 17.38543 | 38159 ft | 408 kts | 349° |
| 2026-04-29 09:10 | 45.29981 | 17.37939 | 38147 ft | 406 kts | 349° |
| 2026-04-29 09:11 | 45.35627 | 17.37299 | 38155 ft | 406 kts | 349° |
| 2026-04-29 09:11 | 45.41238 | 17.36639 | 38152 ft | 406 kts | 349° |
| 2026-04-29 09:12 | 45.46822 | 17.35974 | 38155 ft | 404 kts | 349° |
| 2026-04-29 09:12 | 45.52464 | 17.35296 | 38154 ft | 407 kts | 349° |
| 2026-04-29 09:13 | 45.58058 | 17.34628 | 38149 ft | 405 kts | 348° |
| 2026-04-29 09:13 | 45.63703 | 17.33957 | 38155 ft | 403 kts | 348° |
| 2026-04-29 09:14 | 45.69262 | 17.33288 | 38179 ft | 403 kts | 348° |
| 2026-04-29 09:14 | 45.74856 | 17.32609 | 38190 ft | 403 kts | 348° |
| 2026-04-29 09:15 | 45.80408 | 17.31937 | 38172 ft | 403 kts | 348° |
| 2026-04-29 09:15 | 45.85992 | 17.31259 | 38198 ft | 405 kts | 348° |
| 2026-04-29 09:16 | 45.91623 | 17.30578 | 38186 ft | 405 kts | 349° |
| 2026-04-29 09:16 | 45.97163 | 17.29817 | 38194 ft | 401 kts | 346° |
| 2026-04-29 09:17 | 46.02433 | 17.28141 | 38195 ft | 395 kts | 338° |
| 2026-04-29 09:17 | 46.07655 | 17.25750 | 38208 ft | 395 kts | 336° |
| 2026-04-29 09:18 | 46.12833 | 17.23246 | 38210 ft | 395 kts | 336° |
| 2026-04-29 09:18 | 46.18053 | 17.20739 | 38214 ft | 396 kts | 336° |
| 2026-04-29 09:19 | 46.23257 | 17.18256 | 38206 ft | 395 kts | 336° |
| 2026-04-29 09:19 | 46.28475 | 17.15768 | 38212 ft | 394 kts | 336° |
| 2026-04-29 09:20 | 46.33670 | 17.13283 | 38204 ft | 395 kts | 336° |
| 2026-04-29 09:20 | 46.38857 | 17.10797 | 38214 ft | 396 kts | 336° |
| 2026-04-29 09:21 | 46.44097 | 17.08282 | 38199 ft | 396 kts | 336° |
| 2026-04-29 09:21 | 46.49331 | 17.05764 | 38223 ft | 397 kts | 337° |
| 2026-04-29 09:22 | 46.54543 | 17.03258 | 38215 ft | 394 kts | 336° |
| 2026-04-29 09:22 | 46.59721 | 17.00760 | 38220 ft | 396 kts | 336° |
| 2026-04-29 09:23 | 46.64939 | 16.98235 | 38220 ft | 395 kts | 336° |
| 2026-04-29 09:23 | 46.70145 | 16.95714 | 38224 ft | 395 kts | 337° |
| 2026-04-29 09:24 | 46.75373 | 16.93174 | 38228 ft | 396 kts | 336° |
| 2026-04-29 09:24 | 46.80575 | 16.90643 | 38219 ft | 396 kts | 336° |
| 2026-04-29 09:25 | 46.85779 | 16.88110 | 38216 ft | 396 kts | 336° |
| 2026-04-29 09:25 | 46.91015 | 16.85554 | 38213 ft | 396 kts | 336° |
| 2026-04-29 09:26 | 46.96213 | 16.83012 | 38219 ft | 396 kts | 337° |
| 2026-04-29 09:26 | 47.01414 | 16.80465 | 38221 ft | 397 kts | 337° |
| 2026-04-29 09:27 | 47.06643 | 16.77891 | 38208 ft | 398 kts | 337° |
| 2026-04-29 09:27 | 47.11897 | 16.75300 | 38219 ft | 399 kts | 337° |
| 2026-04-29 09:28 | 47.17147 | 16.72711 | 38218 ft | 396 kts | 337° |
| 2026-04-29 09:28 | 47.22377 | 16.70123 | 38215 ft | 399 kts | 337° |
| 2026-04-29 09:29 | 47.27599 | 16.67531 | 38230 ft | 400 kts | 337° |
| 2026-04-29 09:29 | 47.35504 | 16.63609 | 38222 ft | 402 kts | 337° |
| 2026-04-29 09:30 | 47.40731 | 16.60745 | 38214 ft | 398 kts | 331° |
| 2026-04-29 09:30 | 47.45280 | 16.56396 | 38231 ft | 392 kts | 317° |
| 2026-04-29 09:31 | 47.49263 | 16.50896 | 38217 ft | 393 kts | 314° |
| 2026-04-29 09:31 | 47.53156 | 16.45228 | 38225 ft | 393 kts | 314° |
| 2026-04-29 09:32 | 47.57038 | 16.39611 | 38214 ft | 393 kts | 314° |
| 2026-04-29 09:32 | 47.60952 | 16.33970 | 38214 ft | 394 kts | 314° |
| 2026-04-29 09:33 | 47.64855 | 16.28339 | 38212 ft | 395 kts | 314° |
| 2026-04-29 09:33 | 47.68782 | 16.22665 | 38218 ft | 395 kts | 314° |
| 2026-04-29 09:34 | 47.72714 | 16.16970 | 38215 ft | 395 kts | 314° |
| 2026-04-29 09:34 | 47.76647 | 16.11268 | 38210 ft | 395 kts | 314° |
| 2026-04-29 09:35 | 47.80547 | 16.05598 | 38222 ft | 396 kts | 313° |
| 2026-04-29 09:35 | 47.82505 | 16.02744 | 38326 ft | 397 kts | 314° |
| 2026-04-29 09:35 | 47.84480 | 15.99864 | 38249 ft | 398 kts | 314° |
| 2026-04-29 09:36 | 47.88340 | 15.94222 | 38205 ft | 393 kts | 314° |
| 2026-04-29 09:36 | 47.92248 | 15.88507 | 38209 ft | 397 kts | 314° |
| 2026-04-29 09:37 | 47.96177 | 15.82757 | 38200 ft | 399 kts | 314° |
| 2026-04-29 09:37 | 48.00129 | 15.76948 | 38196 ft | 398 kts | 314° |
| 2026-04-29 09:38 | 48.04055 | 15.71149 | 38215 ft | 400 kts | 314° |
| 2026-04-29 09:38 | 48.07992 | 15.65333 | 38208 ft | 399 kts | 314° |
| 2026-04-29 09:39 | 48.11924 | 15.59520 | 38210 ft | 399 kts | 314° |
| 2026-04-29 09:39 | 48.15868 | 15.53681 | 38135 ft | 398 kts | 314° |
| 2026-04-29 09:40 | 48.19796 | 15.47837 | 38216 ft | 402 kts | 314° |
| 2026-04-29 09:40 | 48.23747 | 15.41953 | 38222 ft | 400 kts | 314° |
| 2026-04-29 09:41 | 48.27681 | 15.36083 | 38230 ft | 400 kts | 314° |
| 2026-04-29 09:41 | 48.31602 | 15.30215 | 38231 ft | 400 kts | 314° |
| 2026-04-29 09:42 | 48.35543 | 15.24296 | 38230 ft | 401 kts | 314° |
| 2026-04-29 09:42 | 48.39484 | 15.18367 | 38227 ft | 402 kts | 314° |
| 2026-04-29 09:43 | 48.43390 | 15.12477 | 38222 ft | 401 kts | 314° |
| 2026-04-29 09:43 | 48.47323 | 15.06533 | 38212 ft | 402 kts | 314° |
| 2026-04-29 09:44 | 48.51244 | 15.00595 | 38210 ft | 402 kts | 314° |
| 2026-04-29 09:44 | 48.55187 | 14.94612 | 38209 ft | 402 kts | 314° |
| 2026-04-29 09:45 | 48.59101 | 14.88658 | 38212 ft | 402 kts | 314° |
| 2026-04-29 09:45 | 48.63033 | 14.82659 | 38211 ft | 402 kts | 314° |
| 2026-04-29 09:46 | 48.64979 | 14.79686 | 38019 ft | 403 kts | 314° |
| 2026-04-29 09:46 | 48.66950 | 14.76671 | 37762 ft | 400 kts | 314° |
| 2026-04-29 09:46 | 48.68871 | 14.73730 | 37504 ft | 397 kts | 314° |
| 2026-04-29 09:46 | 48.70808 | 14.70758 | 37249 ft | 397 kts | 314° |
| 2026-04-29 09:47 | 48.72763 | 14.67754 | 36989 ft | 398 kts | 314° |
| 2026-04-29 09:47 | 48.74683 | 14.64805 | 36737 ft | 398 kts | 314° |
| 2026-04-29 09:47 | 48.76618 | 14.61828 | 36484 ft | 398 kts | 314° |
| 2026-04-29 09:47 | 48.78572 | 14.58819 | 36264 ft | 397 kts | 314° |
| 2026-04-29 09:48 | 48.82408 | 14.52902 | 36235 ft | 398 kts | 314° |
| 2026-04-29 09:48 | 48.86288 | 14.46905 | 36240 ft | 399 kts | 314° |
| 2026-04-29 09:49 | 48.90142 | 14.40930 | 36243 ft | 399 kts | 314° |
| 2026-04-29 09:49 | 48.94244 | 14.35276 | 36239 ft | 401 kts | 324° |
| 2026-04-29 09:50 | 48.99321 | 14.31768 | 36243 ft | 405 kts | 340° |
| 2026-04-29 09:50 | 49.04797 | 14.29537 | 36248 ft | 408 kts | 343° |
| 2026-04-29 09:51 | 49.10276 | 14.27510 | 36247 ft | 407 kts | 343° |
| 2026-04-29 09:51 | 49.15791 | 14.25446 | 36249 ft | 407 kts | 343° |
| 2026-04-29 09:52 | 49.21272 | 14.23349 | 36251 ft | 407 kts | 343° |
| 2026-04-29 09:52 | 49.26743 | 14.21231 | 36252 ft | 408 kts | 343° |
| 2026-04-29 09:53 | 49.32229 | 14.19091 | 36258 ft | 407 kts | 343° |
| 2026-04-29 09:53 | 49.37688 | 14.16950 | 36264 ft | 407 kts | 343° |
| 2026-04-29 09:54 | 49.43190 | 14.14791 | 36265 ft | 409 kts | 343° |
| 2026-04-29 09:54 | 49.48669 | 14.12632 | 36271 ft | 408 kts | 343° |
| 2026-04-29 09:55 | 49.54163 | 14.10460 | 36270 ft | 409 kts | 343° |
| 2026-04-29 09:55 | 49.59637 | 14.08296 | 36276 ft | 408 kts | 343° |
| 2026-04-29 09:56 | 49.65150 | 14.06112 | 36264 ft | 408 kts | 343° |
| 2026-04-29 09:56 | 49.70652 | 14.03925 | 36286 ft | 409 kts | 343° |
| 2026-04-29 09:57 | 49.76141 | 14.01740 | 36282 ft | 410 kts | 343° |
| 2026-04-29 09:57 | 49.81649 | 13.99540 | 36286 ft | 411 kts | 343° |
| 2026-04-29 09:58 | 49.87185 | 13.97322 | 36292 ft | 411 kts | 344° |
| 2026-04-29 09:58 | 49.92676 | 13.95118 | 36287 ft | 410 kts | 344° |
| 2026-04-29 09:59 | 49.98206 | 13.92896 | 36290 ft | 410 kts | 344° |
| 2026-04-29 09:59 | 50.03726 | 13.90671 | 36291 ft | 410 kts | 344° |
| 2026-04-29 10:00 | 50.09233 | 13.88446 | 36289 ft | 411 kts | 344° |
| 2026-04-29 10:00 | 50.14753 | 13.86209 | 36286 ft | 411 kts | 344° |
| 2026-04-29 10:01 | 50.20276 | 13.83968 | 36299 ft | 411 kts | 344° |
| 2026-04-29 10:01 | 50.25775 | 13.81731 | 36296 ft | 409 kts | 344° |
| 2026-04-29 10:02 | 50.31286 | 13.79486 | 36309 ft | 410 kts | 345° |
| 2026-04-29 10:02 | 50.36790 | 13.77235 | 36307 ft | 410 kts | 345° |
| 2026-04-29 10:03 | 50.42292 | 13.74978 | 36311 ft | 411 kts | 345° |
| 2026-04-29 10:03 | 50.47779 | 13.72723 | 36617 ft | 410 kts | 345° |
| 2026-04-29 10:04 | 50.50545 | 13.71585 | 36505 ft | 409 kts | 345° |
| 2026-04-29 10:04 | 50.53294 | 13.70452 | 36170 ft | 406 kts | 345° |
| 2026-04-29 10:04 | 50.56007 | 13.69334 | 36289 ft | 406 kts | 345° |
| 2026-04-29 10:04 | 50.58752 | 13.68201 | 36434 ft | 414 kts | 345° |
| 2026-04-29 10:05 | 50.64267 | 13.65918 | 36314 ft | 406 kts | 345° |
| 2026-04-29 10:05 | 50.69700 | 13.63663 | 36308 ft | 407 kts | 345° |
| 2026-04-29 10:06 | 50.75228 | 13.61555 | 36302 ft | 408 kts | 348° |
| 2026-04-29 10:06 | 50.80782 | 13.59885 | 36309 ft | 408 kts | 349° |
| 2026-04-29 10:07 | 50.86326 | 13.58276 | 36325 ft | 407 kts | 350° |
| 2026-04-29 10:07 | 50.91887 | 13.56619 | 36334 ft | 408 kts | 349° |
| 2026-04-29 10:08 | 50.97416 | 13.54936 | 36341 ft | 407 kts | 349° |
| 2026-04-29 10:08 | 51.02987 | 13.53219 | 36348 ft | 408 kts | 349° |
| 2026-04-29 10:09 | 51.08604 | 13.51482 | 36363 ft | 416 kts | 349° |
| 2026-04-29 10:09 | 51.14279 | 13.49719 | 36356 ft | 417 kts | 349° |
| 2026-04-29 10:10 | 51.19947 | 13.47953 | 36377 ft | 415 kts | 350° |
| 2026-04-29 10:10 | 51.25587 | 13.46191 | 36389 ft | 415 kts | 350° |
| 2026-04-29 10:11 | 51.31207 | 13.44430 | 36380 ft | 414 kts | 350° |
| 2026-04-29 10:11 | 51.36851 | 13.42659 | 36374 ft | 415 kts | 350° |
| 2026-04-29 10:12 | 51.42499 | 13.40882 | 36383 ft | 414 kts | 350° |
| 2026-04-29 10:12 | 51.48107 | 13.39111 | 36384 ft | 414 kts | 350° |
| 2026-04-29 10:13 | 51.53727 | 13.37334 | 36389 ft | 412 kts | 351° |
| 2026-04-29 10:13 | 51.59338 | 13.35553 | 36394 ft | 411 kts | 351° |
| 2026-04-29 10:14 | 51.64937 | 13.33769 | 36394 ft | 411 kts | 350° |
| 2026-04-29 10:14 | 51.70540 | 13.31986 | 36399 ft | 411 kts | 350° |
| 2026-04-29 10:15 | 51.76163 | 13.30192 | 36405 ft | 412 kts | 350° |
| 2026-04-29 10:15 | 51.78946 | 13.29298 | 36042 ft | 412 kts | 350° |
| 2026-04-29 10:15 | 51.81725 | 13.28407 | 36275 ft | 407 kts | 351° |
| 2026-04-29 10:16 | 51.84472 | 13.27492 | 36379 ft | 410 kts | 349° |
| 2026-04-29 10:16 | 51.86345 | 13.26777 | 36400 ft | 413 kts | 348° |
| 2026-04-29 10:16 | 51.92811 | 13.23954 | 36402 ft | 414 kts | 346° |
| 2026-04-29 10:17 | 51.98359 | 13.21459 | 36406 ft | 413 kts | 347° |
| 2026-04-29 10:17 | 52.03887 | 13.19025 | 36402 ft | 413 kts | 347° |
| 2026-04-29 10:18 | 52.09408 | 13.16613 | 36402 ft | 412 kts | 347° |
| 2026-04-29 10:18 | 52.14911 | 13.14213 | 36406 ft | 414 kts | 347° |
| 2026-04-29 10:19 | 52.20437 | 13.11804 | 36415 ft | 410 kts | 348° |
| 2026-04-29 10:19 | 52.25953 | 13.09390 | 36428 ft | 412 kts | 348° |
| 2026-04-29 10:20 | 52.31493 | 13.06966 | 36422 ft | 410 kts | 348° |
| 2026-04-29 10:20 | 52.36965 | 13.04567 | 36433 ft | 410 kts | 348° |
| 2026-04-29 10:21 | 52.42442 | 13.02153 | 36419 ft | 409 kts | 348° |
| 2026-04-29 10:21 | 52.47929 | 12.99728 | 36427 ft | 407 kts | 349° |
| 2026-04-29 10:22 | 52.53377 | 12.97309 | 36431 ft | 405 kts | 348° |
| 2026-04-29 10:22 | 52.58765 | 12.94914 | 36425 ft | 404 kts | 349° |
| 2026-04-29 10:23 | 52.64168 | 12.92512 | 36428 ft | 402 kts | 349° |
| 2026-04-29 10:23 | 52.69541 | 12.90110 | 36424 ft | 400 kts | 349° |
| 2026-04-29 10:24 | 52.74892 | 12.87710 | 36430 ft | 401 kts | 349° |
| 2026-04-29 10:24 | 52.80258 | 12.85307 | 36432 ft | 401 kts | 349° |
| 2026-04-29 10:25 | 52.85641 | 12.82891 | 36438 ft | 401 kts | 349° |
| 2026-04-29 10:25 | 52.90993 | 12.80485 | 36439 ft | 400 kts | 349° |
| 2026-04-29 10:26 | 52.96321 | 12.78070 | 36443 ft | 398 kts | 350° |
| 2026-04-29 10:26 | 53.01643 | 12.75655 | 36445 ft | 399 kts | 350° |
| 2026-04-29 10:27 | 53.09604 | 12.72039 | 36444 ft | 396 kts | 350° |
| 2026-04-29 10:28 | 53.14930 | 12.69612 | 36447 ft | 398 kts | 350° |
| 2026-04-29 10:28 | 53.20224 | 12.67189 | 36437 ft | 395 kts | 351° |
| 2026-04-29 10:29 | 53.25536 | 12.64760 | 36442 ft | 397 kts | 351° |
| 2026-04-29 10:29 | 53.30796 | 12.62345 | 36438 ft | 394 kts | 350° |
| 2026-04-29 10:30 | 53.36093 | 12.59904 | 36445 ft | 396 kts | 350° |
| 2026-04-29 10:30 | 53.41376 | 12.57457 | 36443 ft | 394 kts | 351° |
| 2026-04-29 10:31 | 53.46630 | 12.55033 | 36435 ft | 393 kts | 351° |
| 2026-04-29 10:31 | 53.51888 | 12.52588 | 36430 ft | 393 kts | 350° |
| 2026-04-29 10:32 | 53.57132 | 12.50140 | 36431 ft | 393 kts | 351° |
| 2026-04-29 10:32 | 53.62392 | 12.47688 | 36447 ft | 393 kts | 351° |
| 2026-04-29 10:33 | 53.67638 | 12.45232 | 36445 ft | 391 kts | 351° |
| 2026-04-29 10:33 | 53.72863 | 12.42774 | 36448 ft | 392 kts | 351° |
| 2026-04-29 10:34 | 53.78077 | 12.40327 | 36447 ft | 391 kts | 351° |
| 2026-04-29 10:34 | 53.83300 | 12.37865 | 36448 ft | 392 kts | 351° |
| 2026-04-29 10:35 | 53.88519 | 12.35393 | 36449 ft | 389 kts | 351° |
| 2026-04-29 10:35 | 53.93726 | 12.32921 | 36447 ft | 389 kts | 350° |
| 2026-04-29 10:36 | 53.98953 | 12.30441 | 36451 ft | 392 kts | 351° |
| 2026-04-29 10:36 | 54.04150 | 12.27971 | 36454 ft | 389 kts | 351° |
| 2026-04-29 10:37 | 54.09337 | 12.25485 | 36446 ft | 387 kts | 351° |
| 2026-04-29 10:37 | 54.14510 | 12.23008 | 36450 ft | 388 kts | 351° |
| 2026-04-29 10:38 | 54.19734 | 12.20511 | 36448 ft | 389 kts | 351° |
| 2026-04-29 10:38 | 54.24901 | 12.18012 | 36448 ft | 386 kts | 351° |
| 2026-04-29 10:39 | 54.30065 | 12.15521 | 36444 ft | 388 kts | 351° |
| 2026-04-29 10:39 | 54.35247 | 12.13024 | 36448 ft | 389 kts | 351° |
| 2026-04-29 10:40 | 54.40400 | 12.10524 | 36450 ft | 386 kts | 351° |
| 2026-04-29 10:40 | 54.45551 | 12.08082 | 36455 ft | 384 kts | 353° |
| 2026-04-29 10:41 | 54.50773 | 12.06731 | 36456 ft | 379 kts | 3° |
| 2026-04-29 10:41 | 54.55980 | 12.06815 | 36454 ft | 373 kts | 6° |
| 2026-04-29 10:42 | 54.61138 | 12.07217 | 36453 ft | 373 kts | 7° |
| 2026-04-29 10:42 | 54.66328 | 12.07584 | 36454 ft | 374 kts | 7° |
| 2026-04-29 10:43 | 54.71503 | 12.07916 | 36457 ft | 371 kts | 6° |
| 2026-04-29 10:43 | 54.76642 | 12.08227 | 36453 ft | 372 kts | 7° |
| 2026-04-29 10:44 | 54.81779 | 12.08564 | 36461 ft | 374 kts | 6° |
| 2026-04-29 10:44 | 54.86940 | 12.08891 | 36457 ft | 370 kts | 7° |
| 2026-04-29 10:45 | 54.92071 | 12.09201 | 36455 ft | 371 kts | 7° |
| 2026-04-29 10:45 | 54.97226 | 12.09533 | 36447 ft | 372 kts | 7° |
| 2026-04-29 10:46 | 55.02375 | 12.09866 | 36443 ft | 370 kts | 7° |
| 2026-04-29 10:46 | 55.07509 | 12.10192 | 36440 ft | 372 kts | 7° |
| 2026-04-29 10:47 | 55.12656 | 12.10522 | 36443 ft | 370 kts | 7° |
| 2026-04-29 10:47 | 55.17781 | 12.10847 | 36446 ft | 370 kts | 7° |
| 2026-04-29 10:48 | 55.22894 | 12.11160 | 36448 ft | 369 kts | 7° |
| 2026-04-29 10:48 | 55.28007 | 12.11490 | 36449 ft | 370 kts | 7° |
| 2026-04-29 10:49 | 55.33140 | 12.11828 | 36448 ft | 369 kts | 7° |
| 2026-04-29 10:49 | 55.38235 | 12.12141 | 36450 ft | 370 kts | 7° |
| 2026-04-29 10:50 | 55.43372 | 12.12481 | 36460 ft | 371 kts | 7° |
| 2026-04-29 10:50 | 55.48490 | 12.12819 | 36462 ft | 369 kts | 7° |
| 2026-04-29 10:51 | 55.53606 | 12.13150 | 36468 ft | 368 kts | 7° |
| 2026-04-29 10:51 | 55.58724 | 12.13492 | 36468 ft | 370 kts | 6° |
| 2026-04-29 10:52 | 55.63863 | 12.13825 | 36467 ft | 370 kts | 7° |
| 2026-04-29 10:52 | 55.68982 | 12.14153 | 36470 ft | 369 kts | 6° |
| 2026-04-29 10:53 | 55.74093 | 12.14491 | 36466 ft | 369 kts | 6° |
| 2026-04-29 10:53 | 55.79200 | 12.14826 | 36460 ft | 370 kts | 6° |
| 2026-04-29 10:54 | 55.84315 | 12.15167 | 36458 ft | 368 kts | 6° |
| 2026-04-29 10:54 | 55.89429 | 12.15509 | 36461 ft | 371 kts | 6° |
| 2026-04-29 10:55 | 55.94456 | 12.15840 | 36457 ft | 368 kts | 6° |
| 2026-04-29 10:55 | 55.99595 | 12.16185 | 36456 ft | 370 kts | 6° |
| 2026-04-29 10:56 | 56.04690 | 12.16516 | 36459 ft | 369 kts | 6° |
| 2026-04-29 10:56 | 56.09788 | 12.16837 | 36457 ft | 369 kts | 6° |
| 2026-04-29 10:57 | 56.14927 | 12.17197 | 36455 ft | 370 kts | 6° |
| 2026-04-29 10:57 | 56.20041 | 12.17544 | 36454 ft | 368 kts | 6° |
| 2026-04-29 10:58 | 56.25129 | 12.17895 | 36457 ft | 368 kts | 6° |
| 2026-04-29 10:58 | 56.30224 | 12.18173 | 36455 ft | 370 kts | 3° |
| 2026-04-29 10:59 | 56.35383 | 12.17394 | 36452 ft | 373 kts | 358° |
| 2026-04-29 10:59 | 56.40492 | 12.15960 | 36447 ft | 376 kts | 356° |
| 2026-04-29 11:00 | 56.45634 | 12.14469 | 36451 ft | 373 kts | 356° |
| 2026-04-29 11:00 | 56.50677 | 12.13059 | 36458 ft | 376 kts | 356° |
| 2026-04-29 11:01 | 56.55791 | 12.11634 | 36454 ft | 376 kts | 357° |
| 2026-04-29 11:01 | 56.60954 | 12.10183 | 36454 ft | 374 kts | 356° |
| 2026-04-29 11:02 | 56.66044 | 12.08746 | 36454 ft | 373 kts | 356° |
| 2026-04-29 11:02 | 56.71188 | 12.07320 | 36459 ft | 375 kts | 356° |
| 2026-04-29 11:03 | 56.76293 | 12.05873 | 36454 ft | 374 kts | 356° |
| 2026-04-29 11:03 | 56.81431 | 12.04413 | 36456 ft | 374 kts | 356° |
| 2026-04-29 11:04 | 56.82963 | 12.03977 | 36457 ft | 375 kts | 356° |
| 2026-04-29 11:04 | 56.88116 | 12.02519 | 36458 ft | 376 kts | 355° |
| 2026-04-29 11:05 | 56.93264 | 12.01063 | 36460 ft | 375 kts | 356° |
| 2026-04-29 11:05 | 56.98386 | 11.99594 | 36456 ft | 375 kts | 356° |
| 2026-04-29 11:06 | 57.03536 | 11.98118 | 36455 ft | 375 kts | 356° |
| 2026-04-29 11:06 | 57.08605 | 11.96667 | 36454 ft | 376 kts | 356° |
| 2026-04-29 11:07 | 57.13733 | 11.95184 | 36445 ft | 375 kts | 356° |
| 2026-04-29 11:07 | 57.18904 | 11.93686 | 36450 ft | 377 kts | 356° |
| 2026-04-29 11:08 | 57.24056 | 11.92193 | 36456 ft | 376 kts | 356° |
| 2026-04-29 11:08 | 57.29197 | 11.90689 | 36457 ft | 377 kts | 356° |
| 2026-04-29 11:09 | 57.34356 | 11.89185 | 36456 ft | 376 kts | 356° |
| 2026-04-29 11:09 | 57.39509 | 11.87687 | 36446 ft | 377 kts | 355° |
| 2026-04-29 11:10 | 57.44652 | 11.86180 | 36442 ft | 377 kts | 356° |
| 2026-04-29 11:10 | 57.49823 | 11.84666 | 36439 ft | 377 kts | 355° |
| 2026-04-29 11:11 | 57.54974 | 11.83137 | 36435 ft | 378 kts | 355° |
| 2026-04-29 11:11 | 57.60136 | 11.81616 | 36434 ft | 379 kts | 355° |
| 2026-04-29 11:12 | 57.65321 | 11.80071 | 36432 ft | 377 kts | 355° |
| 2026-04-29 11:12 | 57.70480 | 11.78529 | 36435 ft | 378 kts | 355° |
| 2026-04-29 11:13 | 57.75671 | 11.76984 | 36437 ft | 378 kts | 355° |
| 2026-04-29 11:13 | 57.80831 | 11.75439 | 36340 ft | 372 kts | 356° |
| 2026-04-29 11:13 | 57.83352 | 11.74677 | 35935 ft | 369 kts | 356° |
| 2026-04-29 11:14 | 57.85881 | 11.73914 | 35482 ft | 365 kts | 356° |
| 2026-04-29 11:14 | 57.88336 | 11.73172 | 35056 ft | 361 kts | 356° |
| 2026-04-29 11:14 | 57.90805 | 11.72434 | 34570 ft | 357 kts | 356° |
| 2026-04-29 11:14 | 57.93230 | 11.71709 | 34106 ft | 353 kts | 356° |
| 2026-04-29 11:15 | 57.95641 | 11.70982 | 33657 ft | 349 kts | 356° |
| 2026-04-29 11:15 | 57.98000 | 11.70264 | 33214 ft | 344 kts | 356° |
| 2026-04-29 11:15 | 58.00339 | 11.69553 | 32781 ft | 340 kts | 356° |
| 2026-04-29 11:15 | 58.02644 | 11.68854 | 32358 ft | 335 kts | 356° |
| 2026-04-29 11:16 | 58.04908 | 11.68163 | 31933 ft | 330 kts | 356° |
| 2026-04-29 11:16 | 58.07161 | 11.67479 | 31518 ft | 326 kts | 356° |
| 2026-04-29 11:16 | 58.09368 | 11.66810 | 31104 ft | 321 kts | 356° |
| 2026-04-29 11:16 | 58.11560 | 11.66144 | 30686 ft | 318 kts | 356° |
| 2026-04-29 11:17 | 58.13697 | 11.65493 | 30281 ft | 314 kts | 355° |
| 2026-04-29 11:17 | 58.15837 | 11.64741 | 29879 ft | 312 kts | 352° |
| 2026-04-29 11:17 | 58.17896 | 11.63405 | 29473 ft | 316 kts | 341° |
| 2026-04-29 11:17 | 58.19741 | 11.61132 | 29097 ft | 320 kts | 331° |
| 2026-04-29 11:18 | 58.21439 | 11.58463 | 28687 ft | 321 kts | 328° |
| 2026-04-29 11:18 | 58.23117 | 11.55693 | 28280 ft | 325 kts | 328° |
| 2026-04-29 11:18 | 58.24848 | 11.52844 | 27865 ft | 335 kts | 328° |
| 2026-04-29 11:18 | 58.26639 | 11.49925 | 27423 ft | 344 kts | 328° |
| 2026-04-29 11:19 | 58.28447 | 11.46975 | 26979 ft | 342 kts | 327° |
| 2026-04-29 11:19 | 58.30141 | 11.44204 | 26573 ft | 337 kts | 328° |
| 2026-04-29 11:19 | 58.31896 | 11.41339 | 26145 ft | 333 kts | 327° |
| 2026-04-29 11:19 | 58.33648 | 11.38482 | 25727 ft | 330 kts | 328° |
| 2026-04-29 11:20 | 58.35350 | 11.35712 | 25322 ft | 326 kts | 328° |
| 2026-04-29 11:20 | 58.37068 | 11.32915 | 24914 ft | 322 kts | 327° |
| 2026-04-29 11:20 | 58.38762 | 11.30158 | 24506 ft | 318 kts | 327° |
| 2026-04-29 11:20 | 58.40410 | 11.27472 | 24115 ft | 315 kts | 327° |
| 2026-04-29 11:21 | 58.42073 | 11.24756 | 23712 ft | 311 kts | 327° |
| 2026-04-29 11:21 | 58.43688 | 11.22113 | 23331 ft | 308 kts | 327° |
| 2026-04-29 11:21 | 58.45303 | 11.19469 | 22947 ft | 305 kts | 327° |
| 2026-04-29 11:21 | 58.46899 | 11.16851 | 22571 ft | 302 kts | 327° |
| 2026-04-29 11:22 | 58.48481 | 11.14255 | 22185 ft | 299 kts | 327° |
| 2026-04-29 11:22 | 58.50043 | 11.11689 | 21804 ft | 296 kts | 326° |
| 2026-04-29 11:22 | 58.51585 | 11.09143 | 21427 ft | 293 kts | 327° |
| 2026-04-29 11:22 | 58.53124 | 11.06600 | 21061 ft | 291 kts | 327° |
| 2026-04-29 11:23 | 58.54643 | 11.04101 | 20698 ft | 291 kts | 327° |
| 2026-04-29 11:23 | 58.56195 | 11.01547 | 20319 ft | 298 kts | 327° |
| 2026-04-29 11:23 | 58.57772 | 10.98958 | 19943 ft | 308 kts | 327° |
| 2026-04-29 11:23 | 58.59395 | 10.96278 | 19557 ft | 309 kts | 327° |
| 2026-04-29 11:24 | 58.61013 | 10.93584 | 19162 ft | 305 kts | 327° |
| 2026-04-29 11:24 | 58.62586 | 10.90958 | 18781 ft | 301 kts | 327° |
| 2026-04-29 11:24 | 58.64149 | 10.88348 | 18404 ft | 297 kts | 327° |
| 2026-04-29 11:24 | 58.65697 | 10.85768 | 18030 ft | 294 kts | 327° |
| 2026-04-29 11:25 | 58.67226 | 10.83220 | 17661 ft | 290 kts | 327° |
| 2026-04-29 11:25 | 58.68736 | 10.80703 | 17296 ft | 287 kts | 327° |
| 2026-04-29 11:25 | 58.70244 | 10.78184 | 16929 ft | 284 kts | 327° |
| 2026-04-29 11:25 | 58.71708 | 10.75738 | 16575 ft | 281 kts | 327° |
| 2026-04-29 11:26 | 58.74620 | 10.70860 | 15866 ft | 274 kts | 327° |
| 2026-04-29 11:26 | 58.76044 | 10.68471 | 15523 ft | 271 kts | 326° |
| 2026-04-29 11:26 | 58.77446 | 10.66114 | 15188 ft | 268 kts | 326° |
| 2026-04-29 11:27 | 58.78845 | 10.63762 | 14852 ft | 265 kts | 326° |
| 2026-04-29 11:27 | 58.80244 | 10.61540 | 14514 ft | 260 kts | 330° |
| 2026-04-29 11:27 | 58.81719 | 10.59698 | 14375 ft | 250 kts | 337° |
| 2026-04-29 11:27 | 58.83272 | 10.58168 | 14171 ft | 252 kts | 340° |
| 2026-04-29 11:28 | 58.84886 | 10.56717 | 13861 ft | 266 kts | 340° |
| 2026-04-29 11:28 | 58.86529 | 10.55228 | 13523 ft | 275 kts | 339° |
| 2026-04-29 11:28 | 58.88242 | 10.53624 | 13168 ft | 272 kts | 339° |
| 2026-04-29 11:28 | 58.89928 | 10.52016 | 12817 ft | 268 kts | 339° |
| 2026-04-29 11:29 | 58.91573 | 10.50447 | 12474 ft | 264 kts | 339° |
| 2026-04-29 11:29 | 58.93192 | 10.48908 | 12159 ft | 260 kts | 339° |
| 2026-04-29 11:29 | 58.94812 | 10.47385 | 11837 ft | 256 kts | 340° |
| 2026-04-29 11:29 | 58.96472 | 10.46323 | 11497 ft | 249 kts | 354° |
| 2026-04-29 11:30 | 58.98165 | 10.46170 | 11209 ft | 243 kts | 3° |
| 2026-04-29 11:30 | 58.99872 | 10.46293 | 10889 ft | 246 kts | 4° |
| 2026-04-29 11:30 | 59.01604 | 10.46392 | 10543 ft | 256 kts | 2° |
| 2026-04-29 11:30 | 59.03405 | 10.46422 | 10325 ft | 256 kts | 1° |
| 2026-04-29 11:31 | 59.05134 | 10.46410 | 10143 ft | 247 kts | 1° |
| 2026-04-29 11:31 | 59.06824 | 10.46393 | 9834 ft | 244 kts | 1° |
| 2026-04-29 11:31 | 59.08516 | 10.46383 | 9547 ft | 239 kts | 1° |
| 2026-04-29 11:31 | 59.10155 | 10.46378 | 9262 ft | 236 kts | 1° |
| 2026-04-29 11:32 | 59.11778 | 10.46373 | 8971 ft | 234 kts | 1° |
| 2026-04-29 11:32 | 59.13395 | 10.46370 | 8687 ft | 232 kts | 1° |
| 2026-04-29 11:32 | 59.15011 | 10.46368 | 8405 ft | 232 kts | 0° |
| 2026-04-29 11:32 | 59.16654 | 10.46363 | 8111 ft | 242 kts | 0° |
| 2026-04-29 11:33 | 59.18365 | 10.46355 | 7797 ft | 250 kts | 360° |
| 2026-04-29 11:33 | 59.20113 | 10.46295 | 7394 ft | 252 kts | 358° |
| 2026-04-29 11:33 | 59.21846 | 10.46196 | 7076 ft | 250 kts | 358° |
| 2026-04-29 11:33 | 59.23585 | 10.46092 | 6703 ft | 250 kts | 358° |
| 2026-04-29 11:34 | 59.25309 | 10.45996 | 6344 ft | 249 kts | 358° |
| 2026-04-29 11:34 | 59.27026 | 10.45905 | 5904 ft | 252 kts | 358° |
| 2026-04-29 11:34 | 59.28778 | 10.45830 | 5505 ft | 253 kts | 359° |
| 2026-04-29 11:34 | 59.30529 | 10.45795 | 5197 ft | 250 kts | 359° |
| 2026-04-29 11:35 | 59.32266 | 10.45775 | 4896 ft | 247 kts | 359° |
| 2026-04-29 11:35 | 59.33971 | 10.45752 | 4601 ft | 245 kts | 359° |
| 2026-04-29 11:35 | 59.35650 | 10.45725 | 4350 ft | 241 kts | 359° |
| 2026-04-29 11:35 | 59.37313 | 10.45616 | 4095 ft | 236 kts | 352° |
| 2026-04-29 11:36 | 59.38845 | 10.44742 | 3841 ft | 231 kts | 328° |
| 2026-04-29 11:36 | 59.39965 | 10.42577 | 3594 ft | 226 kts | 301° |
| 2026-04-29 11:36 | 59.40606 | 10.39806 | 3348 ft | 223 kts | 286° |
| 2026-04-29 11:36 | 59.40816 | 10.36842 | 3096 ft | 219 kts | 270° |
| 2026-04-29 11:37 | 59.40761 | 10.33883 | 2988 ft | 214 kts | 266° |
| 2026-04-29 11:37 | 59.40690 | 10.31004 | 2987 ft | 213 kts | 264° |
| 2026-04-29 11:37 | 59.40395 | 10.28160 | 2976 ft | 214 kts | 244° |
| 2026-04-29 11:37 | 59.39427 | 10.26006 | 2980 ft | 210 kts | 207° |
| 2026-04-29 11:38 | 59.38060 | 10.25336 | 2985 ft | 197 kts | 184° |
| 2026-04-29 11:38 | 59.36736 | 10.25385 | 2985 ft | 189 kts | 179° |
| 2026-04-29 11:38 | 59.35455 | 10.25463 | 2988 ft | 177 kts | 180° |
| 2026-04-29 11:38 | 59.34239 | 10.25494 | 2996 ft | 176 kts | 181° |
| 2026-04-29 11:39 | 59.33020 | 10.25524 | 2943 ft | 178 kts | 180° |
| 2026-04-29 11:39 | 59.31782 | 10.25557 | 2701 ft | 180 kts | 180° |
| 2026-04-29 11:39 | 59.30529 | 10.25587 | 2448 ft | 179 kts | 181° |
| 2026-04-29 11:39 | 59.29316 | 10.25615 | 2204 ft | 170 kts | 180° |
| 2026-04-29 11:40 | 59.28203 | 10.25643 | 2007 ft | 152 kts | 180° |
| 2026-04-29 11:40 | 59.27163 | 10.25666 | 1756 ft | 146 kts | 181° |
| 2026-04-29 11:40 | 59.26147 | 10.25688 | 1589 ft | 147 kts | 180° |
| 2026-04-29 11:40 | 59.25127 | 10.25711 | 1376 ft | 146 kts | 179° |
| 2026-04-29 11:41 | 59.24132 | 10.25749 | 1191 ft | 145 kts | 180° |
| 2026-04-29 11:41 | 59.23128 | 10.25783 | 1006 ft | 144 kts | 181° |
| 2026-04-29 11:41 | 59.22128 | 10.25798 | 816 ft | 143 kts | 180° |
| 2026-04-29 11:41 | 59.21140 | 10.25826 | 602 ft | 142 kts | 180° |
| 2026-04-29 11:42 | 59.20167 | 10.25835 | 414 ft | 140 kts | 180° |
| 2026-04-29 11:42 | 59.19190 | 10.25863 | 299 ft | 134 kts | 180° |
| 2026-04-29 11:42 | 59.18325 | 10.25871 | 277 ft | 108 kts | 179° |
| 2026-04-29 11:42 | 59.17751 | 10.25872 | 270 ft | 41 kts | 180° |
| 2026-04-29 11:43 | 59.17673 | 10.25839 | 272 ft | 3 kts | 316° |
| 2026-04-29 11:43 | 59.17680 | 10.25828 | 272 ft | 0 kts | 317° |
| 2026-04-29 11:43 | 59.17691 | 10.25806 | 274 ft | 5 kts | 314° |
| 2026-04-29 11:43 | 59.17731 | 10.25728 | 278 ft | 13 kts | 316° |
| 2026-04-29 11:44 | 59.17798 | 10.25623 | 284 ft | 9 kts | 324° |
| 2026-04-29 11:44 | 59.17834 | 10.25568 | 288 ft | 3 kts | 311° |
| 2026-04-29 11:44 | 59.17842 | 10.25544 | 289 ft | 4 kts | 299° |
| 2026-04-29 11:44 | 59.17851 | 10.25463 | 293 ft | 3 kts | 272° |
| 2026-04-29 11:45 | 59.17851 | 10.25427 | 295 ft | 0 kts | 271° |
| 2026-04-29 11:45 | 59.17851 | 10.25426 | 295 ft | 0 kts | 270° |